DW6222 Weather Reports


Display with metric or nautical units.
time (UTC)temp
F
wind
direction
speed
MPH
gust
MPH
rain 1hr
in
rain 24hr
in
rain mn
in
humidity
%
barometer
mb
20240624030035 60 259 2.0 4.0 0.01 0.40 0.37 90 1011.0
20240624024534 60 0 0.0 0.0 0.01 0.41 0.36 88 1010.7
20240624023035 61 0 0.0 0.0 0.01 0.41 0.36 88 1010.6
20240624021532 61 0 0.0 0.0 0.01 0.41 0.36 86 1010.6
20240624020028 61 128 1.0 3.0 0.02 0.41 0.36 83 1010.3
20240624014529 62 192 1.0 4.0 0.01 0.42 0.35 84 1010.4
20240624013030 63 0 0.0 3.0 0.01 0.42 0.35 81 1010.3
20240624011530 63 200 3.0 6.0 0.01 0.42 0.35 81 1010.3
20240624010033 66 0 0.0 0.0 0.01 0.41 0.34 76 1010.1
20240624004532 67 107 1.0 8.0 0.01 0.42 0.34 73 1010.1
20240624003034 67 110 4.0 9.0 0.01 0.42 0.34 73 1009.9
20240624001540 68 126 5.0 11.0 0.02 0.42 0.34 71 1009.7
20240624000031 69 138 6.0 10.0 0.01 0.41 0.33 69 1009.6
20240623234531 70 96 5.0 12.0 0.01 0.43 0.33 66 1009.4
20240623233038 71 109 7.0 10.0 0.01 0.43 0.33 64 1009.3
20240623231529 72 70 5.0 8.0 0.00 0.42 0.32 61 1009.3
20240623230040 72 57 4.0 11.0 0.01 0.42 0.32 58 1009.2
20240623224535 72 53 3.0 11.0 0.01 0.44 0.32 61 1009.2
20240623223030 72 91 5.0 12.0 0.01 0.44 0.32 60 1009.1
20240623221533 72 91 5.0 11.0 0.02 0.44 0.32 60 1009.2
20240623220040 72 86 5.0 11.0 0.01 0.43 0.31 62 1009.0
20240623214532 71 35 4.0 12.0 0.01 0.44 0.31 63 1009.0
20240623213031 71 254 1.0 4.0 0.02 0.44 0.31 68 1008.8
20240623211533 70 265 2.0 8.0 0.02 0.43 0.30 66 1008.7
20240623210036 70 279 3.0 5.0 0.02 0.43 0.30 67 1008.8
20240623204533 73 315 2.0 4.0 0.03 0.45 0.30 63 1008.6
20240623203031 72 131 0.0 7.0 0.02 0.44 0.29 64 1008.4
20240623201533 71 103 2.0 8.0 0.02 0.43 0.28 64 1008.5
20240623200033 71 46 4.0 9.0 0.02 0.43 0.28 64 1008.5
20240623194530 70 70 5.0 9.0 0.02 0.44 0.27 65 1008.4
20240623193039 68 16 2.0 7.0 0.02 0.44 0.27 70 1008.4
20240623191535 66 348 2.0 5.0 0.02 0.43 0.26 73 1008.5
20240623190030 66 296 2.0 9.0 0.03 0.43 0.26 75 1008.4
20240623184547 67 206 4.0 6.0 0.02 0.44 0.25 72 1008.4
20240623183030 65 192 4.0 9.0 0.03 0.44 0.25 80 1008.5
20240623181540 64 202 6.0 9.0 0.02 0.43 0.24 81 1008.5
20240623180039 63 200 8.0 10.0 0.02 0.42 0.23 81 1008.6
20240623174537 62 192 6.0 9.0 0.02 0.44 0.23 84 1008.6
20240623173032 62 204 7.0 11.0 0.02 0.43 0.22 83 1008.6
20240623171533 62 203 7.0 11.0 0.02 0.43 0.22 81 1008.6
20240623170033 61 203 9.0 12.0 0.02 0.42 0.21 82 1008.6
20240623164532 61 187 8.0 11.0 0.02 0.44 0.21 80 1008.6
20240623163044 62 178 6.0 9.0 0.02 0.43 0.20 79 1008.6
20240623161536 61 175 4.0 6.0 0.02 0.43 0.20 80 1008.6
20240623160052 62 201 5.0 8.0 0.01 0.42 0.19 78 1008.5
20240623154543 62 292 5.0 8.0 0.02 0.43 0.19 77 1008.5
20240623153035 61 278 6.0 9.0 0.01 0.42 0.18 79 1008.4
20240623151535 61 293 8.0 13.0 0.02 0.42 0.18 77 1008.4
20240623150038 61 306 12.0 14.0 0.02 0.42 0.18 76 1008.6
20240623144535 61 294 10.0 15.0 0.01 0.43 0.17 76 1008.5
20240623143030 61 291 12.0 15.0 0.02 0.43 0.17 76 1008.7
20240623141537 60 295 11.0 15.0 0.01 0.42 0.16 77 1008.8
20240623140037 59 283 9.0 12.0 0.02 0.42 0.16 81 1008.6
20240623134533 57 229 7.0 10.0 0.02 0.43 0.16 89 1008.7
20240623133032 57 222 6.0 11.0 0.02 0.42 0.15 88 1008.6
20240623131537 58 219 7.0 17.0 0.02 0.42 0.15 80 1008.6
20240623130031 56 219 5.0 7.0 0.02 0.41 0.14 86 1008.4
20240623124540 55 223 6.0 10.0 0.02 0.42 0.14 87 1008.4
20240623123041 54 221 7.0 11.0 0.02 0.41 0.13 86 1008.4
20240623121542 54 229 7.0 9.0 0.02 0.41 0.13 86 1008.3
20240623120034 53 234 6.0 10.0 0.01 0.40 0.12 87 1008.4
20240623114530 53 229 5.0 9.0 0.02 0.41 0.12 87 1008.0
20240623113031 53 238 6.0 9.0 0.01 0.40 0.11 84 1008.2
20240623111532 52 266 6.0 11.0 0.02 0.40 0.11 86 1008.2
20240623110029 52 261 11.0 13.0 0.02 0.40 0.11 86 1008.4
20240623104540 52 267 9.0 11.0 0.01 0.40 0.10 86 1008.3
20240623103034 53 256 11.0 14.0 0.02 0.40 0.10 86 1008.4
20240623101533 52 257 11.0 13.0 0.01 0.39 0.09 88 1008.0
20240623100037 52 269 10.0 12.0 0.02 0.39 0.09 88 1008.1
20240623094535 52 268 6.0 9.0 0.02 0.41 0.09 90 1007.7
20240623093034 52 252 5.0 9.0 0.01 0.40 0.08 87 1007.7
20240623091534 52 281 7.0 13.0 0.02 0.40 0.08 87 1007.7
20240623090031 52 274 10.0 14.0 0.01 0.39 0.07 91 1007.7
20240623084531 52 254 8.0 11.0 0.02 0.40 0.07 89 1007.7
20240623083029 52 0 0.0 0.0 0.02 0.40 0.07 95 1007.7
20240623081530 52 0 0.0 0.0 0.02 0.39 0.06 94 1007.7
20240623080037 51 0 0.0 0.0 0.02 0.39 0.06 94 1007.9
20240623074528 52 0 0.0 4.0 0.02 0.38 0.05 93 1007.9
20240623073030 53 108 2.0 9.0 0.02 0.38 0.05 92 1007.6
20240623071541 53 299 6.0 9.0 0.02 0.37 0.04 91 1007.5
20240623070032 52 22 4.0 7.0 0.02 0.37 0.04 89 1007.6
20240623064535 53 63 1.0 4.0 0.01 0.37 0.03 90 1007.9
20240623063033 53 350 1.0 4.0 0.02 0.37 0.03 89 1008.1
20240623061536 53 26 2.0 5.0 0.01 0.36 0.02 87 1008.2
20240623060047 52 360 4.0 9.0 0.02 0.36 0.02 88 1008.3
20240623054538 53 30 4.0 9.0 0.02 0.37 0.02 88 1008.3
20240623053031 52 49 2.0 8.0 0.02 0.36 0.01 90 1008.5
20240623051538 52 30 1.0 8.0 0.02 0.36 0.01 90 1008.7
20240623050030 52 348 4.0 8.0 0.02 0.35 0.00 90 1009.1
20240623044531 51 325 1.0 3.0 0.02 0.35 0.35 93 1009.2
20240623043033 51 14 2.0 9.0 0.01 0.34 0.34 92 1009.1
20240623041545 51 21 2.0 4.0 0.02 0.34 0.34 94 1009.1
20240623040031 50 0 0.0 4.0 0.01 0.33 0.33 94 1009.0
20240623034533 50 70 0.0 3.0 0.02 0.34 0.33 93 1008.8
20240623033039 50 17 2.0 6.0 0.02 0.34 0.33 93 1008.9
20240623031535 50 83 3.0 10.0 0.01 0.33 0.32 92 1008.4